Jessup, Pennsylvania
Current Conditions -  °F | °C
As of 9:54 AM on Saturday 20 Dec 2014 (Local Time) from KAVP Reporting Station
Overcast Overcast  
Wind Chill: 23°   Ceiling: 2200
Heat Index: 30°   Visibility: 10mi
Dew Point: 20°   Wind: 7mph
Humidity: 66%   Direction: 20°NNE
Pressure: 30.26"   Gusts: NA
Location:  41.47°N, 75.56°W
Report Text: KAVP 201454Z AUTO 02006KT 10SM OVC022 M01/M07 A3026 RMK AO2 SLP255 T10111067 53011
Loading
Personal Weather Stations






























Interactive Weather Map New forecast layout! Learn more

10-Day Weather Forecast

Advertisements
Track Severe Weather on mobile